JPhyloIO subversion repository

sventon subversion web client - http://www.sventon.org
[show recent changes]
 
  Help
Rev: HEAD (1699) - https://secure.bioinfweb.info/Code/svn/JPhyloIO / trunk / test / lib / junit-4.12.jar
Show Archive File - junit-4.12.jar  [show properties]
Name Original size Compressed size Date CRC
dir META-INF/ 0 0 12/4/14 11:16 AM 0
META-INF/MANIFEST.MF 254 156 12/4/14 11:16 AM 1550474398
dir org/ 0 0 12/4/14 11:14 AM 0
dir org/junit/ 0 0 12/4/14 11:14 AM 0
dir org/junit/rules/ 0 0 12/4/14 11:14 AM 0
dir org/junit/runners/ 0 0 12/4/14 11:14 AM 0
dir org/junit/runners/parameterized/ 0 0 12/4/14 11:14 AM 0
dir org/junit/runners/model/ 0 0 12/4/14 11:14 AM 0
dir org/junit/matchers/ 0 0 12/4/14 11:14 AM 0
dir org/junit/runner/ 0 0 12/4/14 11:14 AM 0
dir org/junit/runner/manipulation/ 0 0 12/4/14 11:14 AM 0
dir org/junit/runner/notification/ 0 0 12/4/14 11:14 AM 0
dir org/junit/validator/ 0 0 12/4/14 11:14 AM 0
dir org/junit/internal/ 0 0 12/4/14 11:14 AM 0
dir org/junit/internal/matchers/ 0 0 12/4/14 11:14 AM 0
dir org/junit/internal/runners/ 0 0 12/4/14 11:14 AM 0
dir org/junit/internal/runners/rules/ 0 0 12/4/14 11:14 AM 0
dir org/junit/internal/runners/statements/ 0 0 12/4/14 11:14 AM 0
dir org/junit/internal/runners/model/ 0 0 12/4/14 11:14 AM 0
dir org/junit/internal/requests/ 0 0 12/4/14 11:14 AM 0
dir org/junit/internal/builders/ 0 0 12/4/14 11:14 AM 0
dir org/junit/experimental/ 0 0 12/4/14 11:14 AM 0
dir org/junit/experimental/results/ 0 0 12/4/14 11:14 AM 0
dir org/junit/experimental/max/ 0 0 12/4/14 11:14 AM 0
dir org/junit/experimental/theories/ 0 0 12/4/14 11:14 AM 0
dir org/junit/experimental/theories/suppliers/ 0 0 12/4/14 11:14 AM 0
dir org/junit/experimental/theories/internal/ 0 0 12/4/14 11:14 AM 0
dir org/junit/experimental/categories/ 0 0 12/4/14 11:14 AM 0
dir org/junit/experimental/runners/ 0 0 12/4/14 11:14 AM 0
dir junit/ 0 0 12/4/14 11:14 AM 0
dir junit/framework/ 0 0 12/4/14 11:14 AM 0
dir junit/runner/ 0 0 12/4/14 11:14 AM 0
dir junit/extensions/ 0 0 12/4/14 11:14 AM 0
dir junit/textui/ 0 0 12/4/14 11:14 AM 0
org/junit/ClassRule.class 394 242 12/4/14 11:14 AM 2341828628
org/junit/Assert.class 10699 4070 12/4/14 11:14 AM 3921212260
org/junit/After.class 373 230 12/4/14 11:14 AM 1453837954
org/junit/rules/Stopwatch$Clock.class 475 302 12/4/14 11:14 AM 3700803398
org/junit/rules/DisableOnDebug.class 2066 981 12/4/14 11:14 AM 916324604
org/junit/rules/ExternalResource.class 1135 498 12/4/14 11:14 AM 3603218355
org/junit/rules/TestWatcher$1.class 2153 920 12/4/14 11:14 AM 2929488867
org/junit/rules/TemporaryFolder.class 3615 1802 12/4/14 11:14 AM 1992934809
org/junit/rules/Timeout$Builder.class 1367 654 12/4/14 11:14 AM 3642295600
org/junit/rules/RunRules.class 1817 719 12/4/14 11:14 AM 651377441
org/junit/rules/TestWatchman$1.class 1522 694 12/4/14 11:14 AM 2053596494
org/junit/rules/Verifier$1.class 889 457 12/4/14 11:14 AM 1379332571
org/junit/rules/ExpectedException.class 4593 1697 12/4/14 11:14 AM 4263620799
org/junit/rules/ExpectedException$ExpectedExceptionStatement.class 1167 542 12/4/14 11:14 AM 4123412174
org/junit/rules/RuleChain.class 1908 959 12/4/14 11:14 AM 2186365634
org/junit/rules/ErrorCollector$1.class 1153 575 12/4/14 11:14 AM 2230185598
org/junit/rules/TestRule.class 234 159 12/4/14 11:14 AM 2012327302
org/junit/rules/Verifier.class 861 431 12/4/14 11:14 AM 1803119544
org/junit/rules/Stopwatch.class 2846 1194 12/4/14 11:14 AM 1247739287
org/junit/rules/Stopwatch$1.class 210 161 12/4/14 11:14 AM 2103747666
org/junit/rules/Timeout.class 2993 1201 12/4/14 11:14 AM 1717241043
org/junit/rules/ExpectedExceptionMatcherBuilder.class 1969 865 12/4/14 11:14 AM 801059962
org/junit/rules/MethodRule.class 267 166 12/4/14 11:14 AM 3363577542
org/junit/rules/Timeout$1.class 927 508 12/4/14 11:14 AM 2350120499
org/junit/rules/ExternalResource$1.class 977 495 12/4/14 11:14 AM 2304539548
org/junit/rules/TestWatchman.class 1434 581 12/4/14 11:14 AM 952992197
org/junit/rules/ErrorCollector.class 2223 973 12/4/14 11:14 AM 3899372988
org/junit/rules/TestWatcher.class 4397 1368 12/4/14 11:14 AM 3776887780
org/junit/rules/Stopwatch$InternalWatcher.class 1870 741 12/4/14 11:14 AM 524074591
org/junit/rules/TestName.class 645 357 12/4/14 11:14 AM 3280995102
org/junit/AssumptionViolatedException.class 1337 590 12/4/14 11:14 AM 2372752483
org/junit/ComparisonFailure$ComparisonCompactor$DiffExtractor.class 2311 926 12/4/14 11:14 AM 2776522688
org/junit/Assume.class 2351 1002 12/4/14 11:14 AM 3110086163
org/junit/runners/AllTests.class 527 324 12/4/14 11:14 AM 198715714
org/junit/runners/Suite$SuiteClasses.class 583 321 12/4/14 11:14 AM 675918265
org/junit/runners/JUnit4.class 547 326 12/4/14 11:14 AM 4162957286
org/junit/runners/ParentRunner$1.class 929 462 12/4/14 11:14 AM 3525615096
org/junit/runners/BlockJUnit4ClassRunner.class 13078 4591 12/4/14 11:14 AM 443480526
org/junit/runners/Parameterized$Parameters.class 566 326 12/4/14 11:14 AM 3809346747
org/junit/runners/MethodSorters.class 1591 753 12/4/14 11:14 AM 2836793473
org/junit/runners/ParentRunner$2.class 958 461 12/4/14 11:14 AM 3352827159
org/junit/runners/ParentRunner$3.class 1066 490 12/4/14 11:14 AM 949187191
org/junit/runners/Parameterized$UseParametersRunnerFactory.class 799 392 12/4/14 11:14 AM 2952645770
org/junit/runners/ParentRunner$4.class 1322 599 12/4/14 11:14 AM 1581375961
org/junit/runners/ParentRunner.class 12908 4882 12/4/14 11:14 AM 606784381
org/junit/runners/BlockJUnit4ClassRunner$1.class 912 470 12/4/14 11:14 AM 1780557418
org/junit/runners/Parameterized$Parameter.class 534 306 12/4/14 11:14 AM 1941032192
org/junit/runners/parameterized/ParametersRunnerFactory.class 357 214 12/4/14 11:14 AM 501123700
org/junit/runners/parameterized/TestWithParameters.class 2612 1200 12/4/14 11:14 AM 763919737
org/junit/runners/parameterized/BlockJUnit4ClassRunnerWithParameters.class 6113 2683 12/4/14 11:14 AM 1429768657
org/junit/runners/parameterized/BlockJUnit4ClassRunnerWithParametersFactory.class 950 403 12/4/14 11:14 AM 20402320
org/junit/runners/Suite.class 4446 1618 12/4/14 11:14 AM 3700858323
org/junit/runners/model/MultipleFailureException.class 2414 1182 12/4/14 11:14 AM 363224355
org/junit/runners/model/RunnerScheduler.class 205 158 12/4/14 11:14 AM 2763444033
org/junit/runners/model/NoGenericTypeParametersValidator.class 3470 1378 12/4/14 11:14 AM 1637936708
org/junit/runners/model/TestClass$1.class 226 163 12/4/14 11:14 AM 3339862674
org/junit/runners/model/RunnerBuilder.class 3277 1400 12/4/14 11:14 AM 7702182
org/junit/runners/model/Annotatable.class 358 202 12/4/14 11:14 AM 3828086881
org/junit/runners/model/FrameworkField.class 2516 1008 12/4/14 11:14 AM 1229736563
org/junit/runners/model/Statement.class 367 252 12/4/14 11:14 AM 651239029
org/junit/runners/model/TestTimedOutException.class 1125 608 12/4/14 11:14 AM 2385350805
org/junit/runners/model/FrameworkMember.class 1596 745 12/4/14 11:14 AM 3543888827
org/junit/runners/model/TestClass.class 12299 4610 12/4/14 11:14 AM 3961934704
org/junit/runners/model/TestClass$FieldComparator.class 1258 565 12/4/14 11:14 AM 2615192657
org/junit/runners/model/FrameworkMethod.class 5263 2143 12/4/14 11:14 AM 2545323214
org/junit/runners/model/TestClass$MethodComparator.class 1387 607 12/4/14 11:14 AM 2150359301
org/junit/runners/model/InitializationError.class 1220 608 12/4/14 11:14 AM 1817279593
org/junit/runners/model/FrameworkMethod$1.class 1233 581 12/4/14 11:14 AM 2012632590
org/junit/runners/Parameterized.class 7368 2950 12/4/14 11:14 AM 3947948777
org/junit/ComparisonFailure.class 1195 605 12/4/14 11:14 AM 2201933938
org/junit/matchers/JUnitMatchers.class 3635 994 12/4/14 11:14 AM 2354207135
org/junit/Test$None.class 396 279 12/4/14 11:14 AM 752699988
org/junit/runner/FilterFactory.class 372 218 12/4/14 11:14 AM 3735345273
org/junit/runner/Result.class 4253 1601 12/4/14 11:14 AM 299993223
org/junit/runner/JUnitCommandLineParseResult$CommandLineParserError.class 623 344 12/4/14 11:14 AM 3387884426
org/junit/runner/Result$Listener.class 2462 1034 12/4/14 11:14 AM 1058010923
org/junit/runner/JUnitCommandLineParseResult.class 5376 2385 12/4/14 11:14 AM 2211648784
org/junit/runner/Describable.class 180 136 12/4/14 11:14 AM 2891012047
org/junit/runner/FilterFactories.class 3280 1218 12/4/14 11:14 AM 1292856465
org/junit/runner/Result$SerializedForm.class 3529 1428 12/4/14 11:14 AM 1394770924
org/junit/runner/Runner.class 572 332 12/4/14 11:14 AM 2196013890
org/junit/runner/RunWith.class 521 295 12/4/14 11:14 AM 4288749881
org/junit/runner/manipulation/NoTestsRemainException.class 418 272 12/4/14 11:14 AM 3505876945
org/junit/runner/manipulation/Sortable.class 186 138 12/4/14 11:14 AM 3010609444
org/junit/runner/manipulation/Filter.class 1712 719 12/4/14 11:14 AM 2967573885
org/junit/runner/manipulation/Filter$2.class 1462 760 12/4/14 11:14 AM 853457337
org/junit/runner/manipulation/Filter$3.class 1219 577 12/4/14 11:14 AM 2358401759
org/junit/runner/manipulation/Sorter.class 1625 717 12/4/14 11:14 AM 1105309686
org/junit/runner/manipulation/Sorter$1.class 937 459 12/4/14 11:14 AM 2166545096
org/junit/runner/manipulation/Filterable.class 273 175 12/4/14 11:14 AM 2523709903
org/junit/runner/manipulation/Filter$1.class 1080 500 12/4/14 11:14 AM 11570718
org/junit/runner/JUnitCore.class 4515 1779 12/4/14 11:14 AM 2387273034
org/junit/runner/FilterFactory$FilterNotCreatedException.class 615 335 12/4/14 11:14 AM 1788113614
org/junit/runner/Result$1.class 203 156 12/4/14 11:14 AM 3621010652
org/junit/runner/Request.class 4405 1539 12/4/14 11:14 AM 3687020476
org/junit/runner/FilterFactoryParams.class 811 433 12/4/14 11:14 AM 3198178462
org/junit/runner/Computer$1.class 1194 534 12/4/14 11:14 AM 1547121674
org/junit/runner/Request$1.class 622 336 12/4/14 11:14 AM 2958905279
org/junit/runner/notification/Failure.class 1736 824 12/4/14 11:14 AM 2235065692
org/junit/runner/notification/RunNotifier.class 4808 1713 12/4/14 11:14 AM 3211314489
org/junit/runner/notification/RunNotifier$1.class 1159 505 12/4/14 11:14 AM 2590918290
org/junit/runner/notification/RunNotifier$2.class 1141 501 12/4/14 11:14 AM 2423272476
org/junit/runner/notification/RunNotifier$3.class 1153 501 12/4/14 11:14 AM 535544880
org/junit/runner/notification/RunListener$ThreadSafe.class 545 302 12/4/14 11:14 AM 2221155299
org/junit/runner/notification/RunNotifier$4.class 1658 713 12/4/14 11:14 AM 778787058
org/junit/runner/notification/SynchronizedRunListener.class 2752 1057 12/4/14 11:14 AM 2148263321
org/junit/runner/notification/RunNotifier$SafeNotifier.class 2449 1038 12/4/14 11:14 AM 4221703277
org/junit/runner/notification/RunNotifier$5.class 1185 507 12/4/14 11:14 AM 2545529167
org/junit/runner/notification/StoppedByUserException.class 425 278 12/4/14 11:14 AM 3527276449
org/junit/runner/notification/RunNotifier$6.class 1153 501 12/4/14 11:14 AM 3916623557
org/junit/runner/notification/RunNotifier$7.class 1155 501 12/4/14 11:14 AM 3517634794
org/junit/runner/notification/RunListener.class 1355 505 12/4/14 11:14 AM 760951461
org/junit/runner/Description.class 7652 3043 12/4/14 11:14 AM 2030556344
org/junit/runner/Computer.class 1652 632 12/4/14 11:14 AM 2017122350
org/junit/validator/AnnotationsValidator$FieldValidator.class 2179 683 12/4/14 11:14 AM 267257020
org/junit/validator/TestClassValidator.class 320 198 12/4/14 11:14 AM 3324853334
org/junit/validator/ValidateWith.class 460 263 12/4/14 11:14 AM 1388960479
org/junit/validator/AnnotationsValidator$AnnotatableValidator.class 3673 1368 12/4/14 11:14 AM 2673302431
org/junit/validator/AnnotationsValidator$MethodValidator.class 2192 690 12/4/14 11:14 AM 1531845511
org/junit/validator/AnnotationsValidator$ClassValidator.class 2099 675 12/4/14 11:14 AM 3480892505
org/junit/validator/AnnotationValidatorFactory.class 2203 991 12/4/14 11:14 AM 1562719154
org/junit/validator/AnnotationValidator.class 1461 552 12/4/14 11:14 AM 3459031662
org/junit/validator/AnnotationsValidator$1.class 251 169 12/4/14 11:14 AM 2846388847
org/junit/validator/AnnotationsValidator.class 2175 918 12/4/14 11:14 AM 1740480906
org/junit/validator/PublicClassValidator.class 1347 676 12/4/14 11:14 AM 2318344645
org/junit/ComparisonFailure$1.class 222 163 12/4/14 11:14 AM 3037765757
org/junit/Ignore.class 450 277 12/4/14 11:14 AM 2780431027
org/junit/BeforeClass.class 385 236 12/4/14 11:14 AM 415521158
org/junit/Before.class 375 231 12/4/14 11:14 AM 21605002
org/junit/Test.class 636 368 12/4/14 11:14 AM 4056536435
org/junit/AfterClass.class 383 235 12/4/14 11:14 AM 3976702056
org/junit/FixMethodOrder.class 512 294 12/4/14 11:14 AM 2180335267
org/junit/ComparisonFailure$ComparisonCompactor.class 3098 1332 12/4/14 11:14 AM 1422626463
org/junit/internal/ExactComparisonCriteria.class 591 332 12/4/14 11:14 AM 3939252890
org/junit/internal/matchers/ThrowableMessageMatcher.class 2467 966 12/4/14 11:14 AM 192504196
org/junit/internal/matchers/TypeSafeMatcher.class 2299 1138 12/4/14 11:14 AM 2494719131
org/junit/internal/matchers/StacktracePrintingMatcher.class 2945 1137 12/4/14 11:14 AM 2078543150
org/junit/internal/matchers/ThrowableCauseMatcher.class 2481 970 12/4/14 11:14 AM 4272095713
org/junit/internal/ArrayComparisonFailure.class 1966 1043 12/4/14 11:14 AM 3359361618
org/junit/internal/InexactComparisonCriteria.class 1041 571 12/4/14 11:14 AM 3343088695
org/junit/internal/TextListener.class 3811 1760 12/4/14 11:14 AM 2784907420
org/junit/internal/MethodSorter.class 1783 812 12/4/14 11:14 AM 2536164637
org/junit/internal/JUnitSystem.class 268 206 12/4/14 11:14 AM 3784261642
org/junit/internal/runners/JUnit38ClassRunner$OldTestClassAdaptingListener.class 3052 1140 12/4/14 11:14 AM 4127801313
org/junit/internal/runners/JUnit4ClassRunner$1.class 887 434 12/4/14 11:14 AM 1367245921
org/junit/internal/runners/MethodRoadie$2.class 690 373 12/4/14 11:14 AM 165646114
org/junit/internal/runners/TestMethod.class 2511 1116 12/4/14 11:14 AM 777601928
org/junit/internal/runners/rules/RuleMemberValidator.class 5963 1966 12/4/14 11:14 AM 6364893
org/junit/internal/runners/rules/RuleMemberValidator$MethodMustBeARule.class 1898 742 12/4/14 11:14 AM 3857279181
org/junit/internal/runners/rules/RuleMemberValidator$MemberMustBePublic.class 1861 712 12/4/14 11:14 AM 590406408
org/junit/internal/runners/rules/ValidationError.class 1192 542 12/4/14 11:14 AM 2248380433
org/junit/internal/runners/rules/RuleMemberValidator$MemberMustBeStatic.class 1861 708 12/4/14 11:14 AM 3048266925
org/junit/internal/runners/rules/RuleMemberValidator$Builder.class 2578 849 12/4/14 11:14 AM 4154115221
org/junit/internal/runners/rules/RuleMemberValidator$MemberMustBeNonStaticOrAlsoClassRule.class 2351 941 12/4/14 11:14 AM 1797858018
org/junit/internal/runners/rules/RuleMemberValidator$FieldMustBeARule.class 1877 732 12/4/14 11:14 AM 1225840001
org/junit/internal/runners/rules/RuleMemberValidator$MethodMustBeATestRule.class 1896 732 12/4/14 11:14 AM 1680635782
org/junit/internal/runners/rules/RuleMemberValidator$RuleValidator.class 532 280 12/4/14 11:14 AM 1707687819
org/junit/internal/runners/rules/RuleMemberValidator$1.class 274 178 12/4/14 11:14 AM 1061038802
org/junit/internal/runners/rules/RuleMemberValidator$DeclaringClassMustBePublic.class 2278 869 12/4/14 11:14 AM 3932717266
org/junit/internal/runners/rules/RuleMemberValidator$FieldMustBeATestRule.class 1875 720 12/4/14 11:14 AM 865011789
org/junit/internal/runners/MethodRoadie$1.class 2234 1002 12/4/14 11:14 AM 3935724788
org/junit/internal/runners/TestClass.class 4361 1874 12/4/14 11:14 AM 980645404
org/junit/internal/runners/ErrorReportingRunner.class 3169 1368 12/4/14 11:14 AM 188450635
org/junit/internal/runners/JUnit4ClassRunner.class 7186 2654 12/4/14 11:14 AM 3266916209
org/junit/internal/runners/FailedBefore.class 466 310 12/4/14 11:14 AM 2206442999
org/junit/internal/runners/statements/FailOnTimeout$1.class 266 182 12/4/14 11:14 AM 3570777905
org/junit/internal/runners/statements/Fail.class 554 336 12/4/14 11:14 AM 761541304
org/junit/internal/runners/statements/FailOnTimeout.class 7850 3294 12/4/14 11:14 AM 1567712951
org/junit/internal/runners/statements/RunAfters.class 2154 1029 12/4/14 11:14 AM 3954375684
org/junit/internal/runners/statements/RunBefores.class 1490 704 12/4/14 11:14 AM 3359774427
org/junit/internal/runners/statements/ExpectException.class 1837 898 12/4/14 11:14 AM 2346969044
org/junit/internal/runners/statements/InvokeMethod.class 877 461 12/4/14 11:14 AM 3446594148
org/junit/internal/runners/statements/FailOnTimeout$Builder.class 2459 939 12/4/14 11:14 AM 2409865731
org/junit/internal/runners/statements/FailOnTimeout$CallableStatement.class 2007 830 12/4/14 11:14 AM 3395774891
org/junit/internal/runners/JUnit4ClassRunner$2.class 1487 631 12/4/14 11:14 AM 3099764500
org/junit/internal/runners/MethodValidator.class 3935 1864 12/4/14 11:14 AM 452483914
org/junit/internal/runners/JUnit38ClassRunner.class 5715 2407 12/4/14 11:14 AM 1047553730
org/junit/internal/runners/SuiteMethod.class 1809 879 12/4/14 11:14 AM 3886236557
org/junit/internal/runners/MethodRoadie.class 5173 2368 12/4/14 11:14 AM 2975211030
org/junit/internal/runners/InitializationError.class 1304 650 12/4/14 11:14 AM 2594630066
org/junit/internal/runners/ClassRoadie.class 3149 1415 12/4/14 11:14 AM 176376981
org/junit/internal/runners/JUnit38ClassRunner$1.class 259 172 12/4/14 11:14 AM 2199655609
org/junit/internal/runners/MethodRoadie$1$1.class 991 482 12/4/14 11:14 AM 587564686
org/junit/internal/runners/model/ReflectiveCallable.class 721 393 12/4/14 11:14 AM 368588854
org/junit/internal/runners/model/EachTestNotifier.class 2235 935 12/4/14 11:14 AM 2598151884
org/junit/internal/runners/model/MultipleFailureException.class 752 408 12/4/14 11:14 AM 2550181289
org/junit/internal/requests/FilterRequest.class 1427 692 12/4/14 11:14 AM 2222520892
org/junit/internal/requests/ClassRequest.class 1279 673 12/4/14 11:14 AM 1524531175
org/junit/internal/requests/SortingRequest.class 1064 518 12/4/14 11:14 AM 1285310636
org/junit/internal/AssumptionViolatedException.class 2819 1158 12/4/14 11:14 AM 3262067125
org/junit/internal/RealSystem.class 673 385 12/4/14 11:14 AM 1297861649
org/junit/internal/MethodSorter$2.class 1107 565 12/4/14 11:14 AM 623851684
org/junit/internal/ComparisonCriteria.class 2479 1258 12/4/14 11:14 AM 2300802251
org/junit/internal/Throwables.class 723 376 12/4/14 11:14 AM 538731439
org/junit/internal/MethodSorter$1.class 1156 614 12/4/14 11:14 AM 4260099153
org/junit/internal/Classes.class 798 429 12/4/14 11:14 AM 1277629959
org/junit/internal/builders/IgnoredClassRunner.class 1115 526 12/4/14 11:14 AM 2249103523
org/junit/internal/builders/JUnit4Builder.class 775 402 12/4/14 11:14 AM 2493219503
org/junit/internal/builders/AnnotatedBuilder.class 2857 1280 12/4/14 11:14 AM 1212490831
org/junit/internal/builders/IgnoredBuilder.class 880 442 12/4/14 11:14 AM 3129514673
org/junit/internal/builders/JUnit3Builder.class 1050 539 12/4/14 11:14 AM 1305766806
org/junit/internal/builders/AllDefaultPossibilitiesBuilder.class 2539 1062 12/4/14 11:14 AM 1182864722
org/junit/internal/builders/NullBuilder.class 678 364 12/4/14 11:14 AM 1752638229
org/junit/internal/builders/SuiteMethodBuilder.class 1232 608 12/4/14 11:14 AM 1569859502
org/junit/experimental/results/ResultMatchers$1.class 1592 750 12/4/14 11:14 AM 1436643889
org/junit/experimental/results/ResultMatchers$2.class 1506 743 12/4/14 11:14 AM 3310861579
org/junit/experimental/results/FailureList.class 1600 767 12/4/14 11:14 AM 2413666447
org/junit/experimental/results/ResultMatchers$3.class 1411 686 12/4/14 11:14 AM 128447586
org/junit/experimental/results/ResultMatchers.class 1427 557 12/4/14 11:14 AM 2332755910
org/junit/experimental/results/PrintableResult.class 2180 942 12/4/14 11:14 AM 3774284143
org/junit/experimental/ParallelComputer$1.class 1541 790 12/4/14 11:14 AM 1344868440
org/junit/experimental/max/MaxHistory$RememberingListener.class 2428 1066 12/4/14 11:14 AM 734450819
org/junit/experimental/max/MaxCore.class 6538 2709 12/4/14 11:14 AM 3428479721
org/junit/experimental/max/MaxHistory$1.class 235 170 12/4/14 11:14 AM 2069325182
org/junit/experimental/max/MaxHistory$TestComparator.class 1893 840 12/4/14 11:14 AM 3582028272
org/junit/experimental/max/MaxCore$1.class 1194 583 12/4/14 11:14 AM 2555606277
org/junit/experimental/max/MaxCore$1$1.class 922 458 12/4/14 11:14 AM 2040847916
org/junit/experimental/max/CouldNotReadCoreException.class 485 303 12/4/14 11:14 AM 14917804
org/junit/experimental/max/MaxHistory.class 3982 1741 12/4/14 11:14 AM 4143305491
org/junit/experimental/ParallelComputer.class 1950 800 12/4/14 11:14 AM 42598464
org/junit/experimental/theories/ParameterSignature.class 6583 2586 12/4/14 11:14 AM 3569562708
org/junit/experimental/theories/Theories$TheoryAnchor$2.class 1867 763 12/4/14 11:14 AM 3812746268
org/junit/experimental/theories/Theories$TheoryAnchor.class 5746 2137 12/4/14 11:14 AM 2057803378
org/junit/experimental/theories/Theory.class 461 288 12/4/14 11:14 AM 3286693733
org/junit/experimental/theories/PotentialAssignment$1.class 1511 749 12/4/14 11:14 AM 830402603
org/junit/experimental/theories/Theories$TheoryAnchor$1$1.class 1959 814 12/4/14 11:14 AM 91612320
org/junit/experimental/theories/FromDataPoints.class 585 326 12/4/14 11:14 AM 1815234246
org/junit/experimental/theories/DataPoints.class 606 355 12/4/14 11:14 AM 3105443202
org/junit/experimental/theories/suppliers/TestedOnSupplier.class 1719 749 12/4/14 11:14 AM 631303483
org/junit/experimental/theories/suppliers/TestedOn.class 565 312 12/4/14 11:14 AM 702696948
org/junit/experimental/theories/Theories$TheoryAnchor$1.class 3114 1150 12/4/14 11:14 AM 3111871607
org/junit/experimental/theories/PotentialAssignment.class 985 455 12/4/14 11:14 AM 480804065
org/junit/experimental/theories/ParametersSuppliedBy.class 577 332 12/4/14 11:14 AM 1629267286
org/junit/experimental/theories/Theories.class 6287 2577 12/4/14 11:14 AM 1802444108
org/junit/experimental/theories/DataPoint.class 604 354 12/4/14 11:14 AM 533620644
org/junit/experimental/theories/internal/AllMembersSupplier$MethodParameterValue.class 2568 1089 12/4/14 11:14 AM 2666199835
org/junit/experimental/theories/internal/AllMembersSupplier.class 9205 3335 12/4/14 11:14 AM 554718808
org/junit/experimental/theories/internal/EnumSupplier.class 1705 753 12/4/14 11:14 AM 82480345
org/junit/experimental/theories/internal/Assignments.class 6945 2608 12/4/14 11:14 AM 3980463602
org/junit/experimental/theories/internal/SpecificDataPointsSupplier.class 3645 1221 12/4/14 11:14 AM 344008432
org/junit/experimental/theories/internal/BooleanSupplier.class 1125 499 12/4/14 11:14 AM 2145474225
org/junit/experimental/theories/internal/AllMembersSupplier$1.class 287 188 12/4/14 11:14 AM 3064250224
org/junit/experimental/theories/internal/ParameterizedAssertionError.class 2531 1175 12/4/14 11:14 AM 1595889780
org/junit/experimental/theories/PotentialAssignment$CouldNotGenerateValueException.class 741 387 12/4/14 11:14 AM 3983822477
org/junit/experimental/theories/ParameterSupplier.class 635 330 12/4/14 11:14 AM 3001097177
org/junit/experimental/categories/ExcludeCategories$ExcludesAny.class 1413 626 12/4/14 11:14 AM 3007811629
org/junit/experimental/categories/IncludeCategories.class 899 438 12/4/14 11:14 AM 2420960004
org/junit/experimental/categories/ExcludeCategories.class 899 439 12/4/14 11:14 AM 701992951
org/junit/experimental/categories/Categories$CategoryFilter.class 6999 2632 12/4/14 11:14 AM 1681941552
org/junit/experimental/categories/Categories$ExcludeCategory.class 575 332 12/4/14 11:14 AM 997118752
org/junit/experimental/categories/CategoryValidator.class 2961 1378 12/4/14 11:14 AM 1186793988
org/junit/experimental/categories/IncludeCategories$IncludesAny.class 1413 626 12/4/14 11:14 AM 1134495112
org/junit/experimental/categories/Category.class 529 301 12/4/14 11:14 AM 3594393425
org/junit/experimental/categories/CategoryFilterFactory.class 2081 932 12/4/14 11:14 AM 3025243938
org/junit/experimental/categories/Categories.class 4979 2080 12/4/14 11:14 AM 147443255
org/junit/experimental/categories/Categories$IncludeCategory.class 575 331 12/4/14 11:14 AM 3401269802
org/junit/experimental/runners/Enclosed.class 1641 815 12/4/14 11:14 AM 2818450302
org/junit/Rule.class 384 237 12/4/14 11:14 AM 2365542561
junit/framework/TestCase.class 7613 2856 12/4/14 11:14 AM 1419704189
junit/framework/TestResult.class 4371 1863 12/4/14 11:14 AM 3600124081
junit/framework/TestFailure.class 1617 754 12/4/14 11:14 AM 835254627
junit/framework/JUnit4TestAdapter.class 4103 1656 12/4/14 11:14 AM 2387455098
junit/framework/TestResult$1.class 835 451 12/4/14 11:14 AM 417388633
junit/framework/TestSuite$1.class 684 392 12/4/14 11:14 AM 3434254161
junit/framework/AssertionFailedError.class 701 401 12/4/14 11:14 AM 1081022339
junit/framework/TestSuite.class 8961 3803 12/4/14 11:14 AM 3640184803
junit/framework/ComparisonCompactor.class 2631 1322 12/4/14 11:14 AM 2596382108
junit/framework/JUnit4TestAdapterCache.class 3206 1393 12/4/14 11:14 AM 2514227691
junit/framework/Assert.class 6225 2490 12/4/14 11:14 AM 4289190122
junit/framework/ComparisonFailure.class 1108 559 12/4/14 11:14 AM 3250893244
junit/framework/JUnit4TestCaseFacade.class 1149 578 12/4/14 11:14 AM 2637627852
junit/framework/TestListener.class 342 211 12/4/14 11:14 AM 4138364084
junit/framework/Protectable.class 191 152 12/4/14 11:14 AM 3717188658
junit/framework/JUnit4TestAdapterCache$1.class 1764 719 12/4/14 11:14 AM 3206862586
junit/framework/Test.class 184 149 12/4/14 11:14 AM 961953495
junit/runner/Version.class 627 375 12/4/14 11:14 AM 1809969646
junit/runner/smalllogo.gif 883 154 12/4/14 11:14 AM 1193524891
junit/runner/logo.gif 964 243 12/4/14 11:14 AM 1498896564
junit/runner/TestRunListener.class 453 267 12/4/14 11:14 AM 4267809179
junit/runner/BaseTestRunner.class 8966 4385 12/4/14 11:14 AM 3432555904
junit/extensions/TestDecorator.class 1036 527 12/4/14 11:14 AM 421621876
junit/extensions/ActiveTestSuite$1.class 986 503 12/4/14 11:14 AM 2270172052
junit/extensions/TestSetup.class 1037 490 12/4/14 11:14 AM 3329683568
junit/extensions/ActiveTestSuite.class 2071 917 12/4/14 11:14 AM 2242627424
junit/extensions/TestSetup$1.class 878 484 12/4/14 11:14 AM 1480620231
junit/extensions/RepeatedTest.class 1241 690 12/4/14 11:14 AM 3666741211
junit/textui/TestRunner.class 5641 2705 12/4/14 11:14 AM 3276858435
junit/textui/ResultPrinter.class 4702 2109 12/4/14 11:14 AM 1685458649
LICENSE-junit.txt 11376 4182 12/4/14 11:14 AM 1512885327
Total: 323 entries 597 kB 255 kB    


feed icon

sventon 2.5.1

bioinfweb RSS feed JPhyloIO on ResearchGate bioinfweb on twitter JPhyloIO on GitHub
bioinfweb - Biology & Informatics Website